Time;durP1;ratioP1;P1;durP2;ratioP2;P2;SDS_P1;SDS_P2;PMS_P1;PMS_P2;Temp;Humidity;BMP_temperature;BMP_pressure;BME280_temperature;BME280_humidity;BME280_pressure;Samples;Min_cycle;Max_cycle;Signal;HPM_P1;HPM_P2
2023/04/19 00:00:29;;;;;;;8.27;1.77;;;;;;;13.53;100.00;100904.38;2076133;28;20065;-74
2023/04/19 00:01:50;;;;;;;5.93;1.70;;;;;;;13.51;100.00;100907.94;2076195;28;20107;-74
2023/04/19 00:03:14;;;;;;;8.68;2.10;;;;;;;13.49;100.00;100910.56;2077686;28;20053;-75
2023/04/19 00:04:38;;;;;;;7.40;2.42;;;;;;;13.50;100.00;100912.34;2081511;28;20098;-74
2023/04/19 00:05:59;;;;;;;7.07;1.52;;;;;;;13.51;100.00;100905.28;2070881;28;20064;-74
2023/04/19 00:07:22;;;;;;;8.30;1.42;;;;;;;13.54;100.00;100897.31;2079618;28;20608;-74
2023/04/19 00:08:43;;;;;;;7.63;1.60;;;;;;;13.57;100.00;100907.97;2083864;28;20075;-74
2023/04/19 00:10:07;;;;;;;9.65;2.10;;;;;;;13.58;100.00;100909.75;2073641;28;20050;-74
2023/04/19 00:11:28;;;;;;;5.55;1.40;;;;;;;13.60;100.00;100904.41;2068289;28;20065;-75
2023/04/19 00:12:50;;;;;;;5.60;1.63;;;;;;;13.61;100.00;100904.44;2066812;28;20044;-74
2023/04/19 00:14:12;;;;;;;9.60;1.80;;;;;;;13.63;100.00;100904.44;2073955;28;20065;-74
2023/04/19 00:15:34;;;;;;;5.40;1.52;;;;;;;13.62;100.00;100902.66;2077471;28;20069;-74
2023/04/19 00:16:55;;;;;;;5.45;1.98;;;;;;;13.62;100.00;100902.66;2068665;28;20050;-74
2023/04/19 00:18:17;;;;;;;8.20;1.95;;;;;;;13.59;100.00;100892.91;2061108;28;20109;-74
2023/04/19 00:19:40;;;;;;;8.45;1.88;;;;;;;13.58;100.00;100901.78;2066912;28;20050;-74
2023/04/19 00:21:03;;;;;;;9.75;1.75;;;;;;;13.56;100.00;100895.56;2076485;28;20076;-74
2023/04/19 00:22:25;;;;;;;8.07;1.80;;;;;;;13.53;100.00;100898.19;2076086;28;20150;-74
2023/04/19 00:23:46;;;;;;;9.90;1.85;;;;;;;13.50;100.00;100891.13;2075834;28;20068;-74
2023/04/19 00:25:09;;;;;;;7.65;1.98;;;;;;;13.47;100.00;100906.13;2068672;28;20140;-74
2023/04/19 00:26:30;;;;;;;8.00;1.55;;;;;;;13.41;100.00;100899.00;2074101;28;20140;-74
2023/04/19 00:27:53;;;;;;;7.57;1.85;;;;;;;13.37;100.00;100894.59;2077029;28;20136;-74
2023/04/19 00:29:16;;;;;;;6.47;1.92;;;;;;;13.33;100.00;100900.72;2070936;28;20084;-74
2023/04/19 00:30:37;;;;;;;6.32;1.77;;;;;;;13.31;100.00;100904.25;2075323;28;20050;-74
2023/04/19 00:31:59;;;;;;;9.80;1.85;;;;;;;13.32;100.00;100898.09;2067176;28;20046;-74
2023/04/19 00:33:22;;;;;;;6.85;1.90;;;;;;;13.33;100.00;100900.72;2066769;28;20061;-74
2023/04/19 00:34:44;;;;;;;10.85;1.98;;;;;;;13.37;100.00;100901.66;2067554;28;20042;-74
2023/04/19 00:36:07;;;;;;;9.98;1.80;;;;;;;13.37;100.00;100897.25;2065937;28;20410;-74
2023/04/19 00:37:29;;;;;;;7.65;2.75;;;;;;;13.41;100.00;100900.78;2074066;28;20433;-75
2023/04/19 00:38:51;;;;;;;6.25;2.50;;;;;;;13.42;100.00;100906.09;2077063;28;20414;-75
2023/04/19 00:40:13;;;;;;;14.45;2.50;;;;;;;13.44;100.00;100906.13;2068959;28;20038;-74
2023/04/19 00:41:35;;;;;;;9.40;1.83;;;;;;;13.42;100.00;100902.56;2074363;28;20053;-75
2023/04/19 00:42:58;;;;;;;6.60;2.03;;;;;;;13.40;100.00;100907.84;2069394;28;20050;-75
2023/04/19 00:44:20;;;;;;;6.97;1.67;;;;;;;13.37;100.00;100907.84;2081813;28;20432;-74
2023/04/19 00:45:42;;;;;;;7.47;2.22;;;;;;;13.34;100.00;100906.91;2085290;28;20544;-75
2023/04/19 00:47:04;;;;;;;9.80;2.60;;;;;;;13.30;100.00;100906.03;2085422;28;20052;-75
2023/04/19 00:48:26;;;;;;;10.60;2.58;;;;;;;13.26;100.00;100909.50;2083485;28;20139;-75
2023/04/19 00:49:50;;;;;;;10.52;2.50;;;;;;;13.26;100.00;100906.84;2077138;28;20061;-75
2023/04/19 00:51:12;;;;;;;10.07;2.35;;;;;;;13.26;100.00;100903.34;2067449;28;20141;-75
2023/04/19 00:52:34;;;;;;;12.85;2.20;;;;;;;13.25;100.00;100906.88;2077333;28;20520;-75
2023/04/19 00:53:56;;;;;;;8.65;2.10;;;;;;;13.24;100.00;100905.97;2076113;28;20053;-75
2023/04/19 00:55:22;;;;;;;8.93;2.33;;;;;;;13.25;100.00;100905.13;2077539;28;20060;-75
2023/04/19 00:56:45;;;;;;;9.85;2.10;;;;;;;13.25;100.00;100905.13;2069207;28;20049;-75
2023/04/19 00:58:08;;;;;;;9.68;2.13;;;;;;;13.26;100.00;100901.56;2074842;28;20136;-75
2023/04/19 00:59:30;;;;;;;;;;;;;;;13.24;100.00;100897.16;2080039;28;20103;-75
2023/04/19 01:00:53;;;;;;;5.57;1.80;;;;;;;13.13;100.00;100897.03;2076665;28;19921;-75
2023/04/19 01:02:14;;;;;;;7.38;1.67;;;;;;;12.99;100.00;100890.75;2077079;28;20041;-75
2023/04/19 01:03:37;;;;;;;5.20;1.30;;;;;;;12.91;100.00;100895.09;2076031;28;20068;-75
2023/04/19 01:05:00;;;;;;;7.85;1.73;;;;;;;12.91;100.00;100892.44;2076651;28;20063;-75
2023/04/19 01:06:23;;;;;;;7.03;1.90;;;;;;;12.96;100.00;100903.97;2077454;28;20807;-75
2023/04/19 01:07:44;;;;;;;10.05;1.90;;;;;;;12.96;100.00;100893.34;2079917;28;20079;-75
2023/04/19 01:09:09;;;;;;;9.60;1.73;;;;;;;12.94;100.00;100896.00;2063628;28;20148;-75
2023/04/19 01:10:34;;;;;;;5.32;1.88;;;;;;;12.97;100.00;100895.13;2063007;28;20035;-75
2023/04/19 01:11:56;;;;;;;10.43;1.98;;;;;;;13.01;100.00;100896.91;2077142;28;20053;-75
2023/04/19 01:13:19;;;;;;;10.63;2.17;;;;;;;13.04;100.00;100895.22;2076851;28;20144;-74
2023/04/19 01:14:40;;;;;;;9.48;2.10;;;;;;;13.06;100.00;100896.09;2073537;28;20042;-74
2023/04/19 01:16:03;;;;;;;9.77;2.20;;;;;;;13.06;100.00;100895.22;2069582;28;20046;-75
2023/04/19 01:17:26;;;;;;;6.35;1.83;;;;;;;13.06;100.00;100892.56;2076413;28;20049;-74
2023/04/19 01:18:48;;;;;;;7.35;1.70;;;;;;;13.07;100.00;100897.84;2078847;28;20575;-74
2023/04/19 01:20:12;;;;;;;8.57;2.00;;;;;;;13.09;100.00;100892.56;2069264;28;20054;-74
2023/04/19 01:21:37;;;;;;;8.70;1.95;;;;;;;13.11;100.00;100893.50;2068355;28;20061;-74
2023/04/19 01:23:01;;;;;;;7.32;1.90;;;;;;;13.11;100.00;100888.19;2068721;28;20059;-75
2023/04/19 01:24:22;;;;;;;8.02;1.70;;;;;;;13.11;100.00;100893.50;2084399;28;20056;-74
2023/04/19 01:25:45;;;;;;;8.02;1.65;;;;;;;13.09;100.00;100888.16;2089791;28;20049;-74
2023/04/19 01:27:06;;;;;;;9.02;2.17;;;;;;;13.08;100.00;100890.81;2078451;28;20041;-74
2023/04/19 01:28:29;;;;;;;5.45;1.70;;;;;;;13.09;100.00;100889.94;2076954;28;20072;-75
2023/04/19 01:29:51;;;;;;;9.32;2.20;;;;;;;13.10;100.00;100886.41;2070678;28;20045;-74
2023/04/19 01:31:12;;;;;;;7.22;2.20;;;;;;;13.11;100.00;100894.38;2076738;28;20045;-74
2023/04/19 01:32:35;;;;;;;5.75;1.80;;;;;;;13.12;100.00;100895.25;2078612;28;20076;-75
2023/04/19 01:33:57;;;;;;;8.23;2.08;;;;;;;13.08;100.00;100896.09;2068100;28;20050;-75
2023/04/19 01:35:18;;;;;;;9.35;2.28;;;;;;;13.02;100.00;100893.41;2064669;28;20748;-75
2023/04/19 01:36:40;;;;;;;7.75;1.80;;;;;;;12.96;100.00;100893.34;2078726;28;20099;-75
2023/04/19 01:38:04;;;;;;;6.15;2.25;;;;;;;12.94;100.00;100892.44;2074980;28;20101;-74
2023/04/19 01:39:26;;;;;;;11.00;2.30;;;;;;;12.93;100.00;100893.34;2078027;28;20038;-75
2023/04/19 01:40:48;;;;;;;10.60;2.50;;;;;;;12.91;100.00;100889.78;2078722;28;20132;-75
2023/04/19 01:42:09;;;;;;;8.75;2.30;;;;;;;12.91;100.00;100892.44;2068711;28;20137;-75
2023/04/19 01:43:32;;;;;;;8.70;2.53;;;;;;;12.90;100.00;100888.91;2070123;28;20148;-74
2023/04/19 01:44:54;;;;;;;12.57;2.42;;;;;;;12.89;100.00;100883.59;2074531;28;20054;-74
2023/04/19 01:46:15;;;;;;;11.70;2.53;;;;;;;12.90;100.00;100891.56;2078469;28;20763;-75
2023/04/19 01:47:38;;;;;;;7.38;2.10;;;;;;;12.91;100.00;100890.69;2075810;28;20060;-75
2023/04/19 01:49:00;;;;;;;10.43;2.75;;;;;;;12.94;100.00;100890.69;2078565;28;20061;-75
2023/04/19 01:50:21;;;;;;;10.48;2.50;;;;;;;12.95;100.00;100886.28;2071170;28;20352;-75
2023/04/19 01:51:43;;;;;;;8.43;2.22;;;;;;;12.97;100.00;100890.72;2072892;28;20112;-74
2023/04/19 01:53:07;;;;;;;9.95;2.33;;;;;;;13.01;100.00;100891.63;2066758;28;20426;-74
2023/04/19 01:54:30;;;;;;;10.20;2.72;;;;;;;13.03;100.00;100889.88;2076922;28;20041;-74
2023/04/19 01:55:52;;;;;;;8.25;2.85;;;;;;;13.04;100.00;100896.97;2077345;28;20046;-74
2023/04/19 01:57:17;;;;;;;8.25;2.72;;;;;;;13.04;100.00;100886.38;2068920;28;20136;-75
2023/04/19 01:58:39;;;;;;;11.00;3.22;;;;;;;13.02;100.00;100890.75;2067067;28;20046;-75
2023/04/19 02:00:01;;;;;;;11.60;2.88;;;;;;;13.01;100.00;100892.50;2075900;28;20119;-75
2023/04/19 02:01:23;;;;;;;9.25;3.35;;;;;;;13.00;100.00;100879.25;2069354;28;20458;-75
2023/04/19 02:02:46;;;;;;;14.10;3.60;;;;;;;12.98;100.00;100887.22;2075844;28;20052;-75
2023/04/19 02:04:09;;;;;;;10.70;3.42;;;;;;;12.97;100.00;100880.13;2078736;28;20132;-75
2023/04/19 02:05:32;;;;;;;13.68;2.92;;;;;;;12.97;100.00;100881.88;2078381;28;20045;-75
2023/04/19 02:06:55;;;;;;;9.48;3.10;;;;;;;12.95;100.00;100883.63;2070011;28;20450;-75
2023/04/19 02:08:17;;;;;;;14.05;3.78;;;;;;;12.95;100.00;100880.97;2075329;28;20548;-76
2023/04/19 02:09:40;;;;;;;9.88;3.78;;;;;;;12.94;100.00;100884.50;2071910;28;20046;-75
2023/04/19 02:11:07;;;;;;;9.60;3.35;;;;;;;12.93;100.00;100878.31;2065850;28;20421;-75
2023/04/19 02:12:29;;;;;;;15.07;4.22;;;;;;;12.91;100.00;100873.91;2068358;28;20054;-75
2023/04/19 02:13:52;;;;;;;13.23;4.40;;;;;;;12.92;100.00;100880.97;2067584;28;20509;-75
2023/04/19 02:15:13;;;;;;;15.07;4.68;;;;;;;12.91;100.00;100881.84;2075589;28;20106;-75
2023/04/19 02:16:35;;;;;;;15.80;4.35;;;;;;;12.92;100.00;100886.28;2071300;28;20046;-75
2023/04/19 02:17:58;;;;;;;16.27;4.85;;;;;;;12.90;100.00;100883.59;2069804;28;20498;-75
2023/04/19 02:19:20;;;;;;;15.80;4.60;;;;;;;12.90;100.00;100882.72;2071564;28;20056;-75
2023/04/19 02:20:42;;;;;;;14.20;4.82;;;;;;;12.90;100.00;100882.72;2069418;28;20042;-75
2023/04/19 02:22:05;;;;;;;20.75;5.72;;;;;;;12.89;100.00;100889.78;2069663;28;20050;-75
2023/04/19 02:23:29;;;;;;;15.95;5.30;;;;;;;12.89;100.00;100891.53;2069847;28;20038;-75
2023/04/19 02:24:50;;;;;;;15.27;4.45;;;;;;;12.87;100.00;100890.63;2067081;28;20041;-75
2023/04/19 02:26:13;;;;;;;14.35;3.85;;;;;;;12.84;100.00;100894.16;2066626;28;20046;-75
2023/04/19 02:27:38;;;;;;;16.85;5.07;;;;;;;12.82;100.00;100895.88;2070362;28;20042;-75
2023/04/19 02:29:00;;;;;;;16.20;4.75;;;;;;;12.79;100.00;100895.88;2067502;28;20493;-75
2023/04/19 02:30:22;;;;;;;16.23;4.15;;;;;;;12.78;100.00;100889.69;2068159;28;20056;-75
2023/04/19 02:31:45;;;;;;;15.02;4.82;;;;;;;12.76;100.00;100888.78;2075906;28;20057;-75
2023/04/19 02:33:07;;;;;;;14.18;4.00;;;;;;;12.75;100.00;100889.66;2071902;28;20411;-74
2023/04/19 02:34:29;;;;;;;11.88;4.18;;;;;;;12.74;100.00;100882.56;2075698;28;20048;-74
2023/04/19 02:35:51;;;;;;;11.20;4.38;;;;;;;12.75;100.00;100883.47;2068939;28;20049;-74
2023/04/19 02:37:14;;;;;;;14.75;3.75;;;;;;;12.75;100.00;100888.75;2065755;28;20064;-75
2023/04/19 02:38:37;;;;;;;13.32;4.15;;;;;;;12.76;100.00;100882.59;2069289;28;20144;-74
2023/04/19 02:40:00;;;;;;;10.02;3.90;;;;;;;12.76;100.00;100882.59;2075756;28;20136;-75
2023/04/19 02:41:24;;;;;;;12.13;3.60;;;;;;;12.78;100.00;100886.16;2072364;28;20121;-74
2023/04/19 02:42:45;;;;;;;12.35;3.28;;;;;;;12.77;100.00;100889.69;2080640;28;20056;-74
2023/04/19 02:44:08;;;;;;;11.38;3.53;;;;;;;12.75;100.00;100883.47;2078120;28;20414;-74
2023/04/19 02:45:30;;;;;;;12.77;3.47;;;;;;;12.73;100.00;100878.16;2075823;28;20054;-74
2023/04/19 02:46:53;;;;;;;8.65;2.67;;;;;;;12.72;100.00;100888.75;2077616;28;20033;-74
2023/04/19 02:48:14;;;;;;;7.95;2.75;;;;;;;12.73;100.00;100882.59;2069587;28;20099;-74
2023/04/19 02:49:40;;;;;;;11.50;3.10;;;;;;;12.75;100.00;100889.66;2076126;28;20076;-74
2023/04/19 02:51:04;;;;;;;9.20;3.40;;;;;;;12.76;100.00;100882.59;2071078;28;20049;-74
2023/04/19 02:52:25;;;;;;;11.23;3.35;;;;;;;12.80;100.00;100886.19;2067450;28;20046;-74
2023/04/19 02:53:49;;;;;;;9.18;2.80;;;;;;;12.78;100.00;100880.84;2064535;28;20415;-74
2023/04/19 02:55:12;;;;;;;14.00;3.17;;;;;;;12.78;100.00;100883.50;2066858;28;20149;-74
2023/04/19 02:56:34;;;;;;;7.18;2.80;;;;;;;12.78;100.00;100883.50;2065903;28;20050;-74
2023/04/19 02:57:57;;;;;;;12.10;3.50;;;;;;;12.77;100.00;100885.28;2070205;28;20045;-75
2023/04/19 02:59:18;;;;;;;10.48;3.10;;;;;;;12.77;100.00;100885.28;2069449;28;20049;-75
2023/04/19 03:00:42;;;;;;;8.00;2.65;;;;;;;12.76;100.00;100878.19;2066604;28;20494;-75
2023/04/19 03:02:08;;;;;;;10.40;3.17;;;;;;;12.76;100.00;100879.94;2062381;28;20560;-75
2023/04/19 03:03:30;;;;;;;7.90;3.30;;;;;;;12.76;100.00;100888.78;2061588;28;20490;-74
2023/04/19 03:04:53;;;;;;;6.93;2.90;;;;;;;12.75;100.00;100884.34;2067067;28;20156;-74
2023/04/19 03:06:16;;;;;;;11.07;3.28;;;;;;;12.76;100.00;100883.50;2069347;28;20038;-74
2023/04/19 03:07:37;;;;;;;9.65;3.22;;;;;;;12.78;100.00;100887.03;2073068;28;20060;-74
2023/04/19 03:09:01;;;;;;;8.40;3.00;;;;;;;12.77;100.00;100873.78;2071585;28;20407;-75
2023/04/19 03:10:22;;;;;;;9.85;3.40;;;;;;;12.76;100.00;100878.19;2065268;28;20050;-74
2023/04/19 03:11:44;;;;;;;11.55;3.50;;;;;;;12.74;100.00;100882.56;2059067;28;20557;-74
2023/04/19 03:13:05;;;;;;;14.27;3.90;;;;;;;12.73;100.00;100872.00;2069730;28;20559;-74
2023/04/19 03:14:28;;;;;;;11.60;4.32;;;;;;;12.73;100.00;100886.09;2065143;28;20128;-74
2023/04/19 03:15:49;;;;;;;11.40;4.22;;;;;;;12.69;100.00;100884.31;2066028;28;20062;-74
2023/04/19 03:17:16;;;;;;;11.55;4.15;;;;;;;12.68;100.00;100887.81;2067569;28;20071;-74
2023/04/19 03:18:38;;;;;;;13.57;4.60;;;;;;;12.66;100.00;100883.41;2065587;28;20136;-74
2023/04/19 03:20:00;;;;;;;;;;;;;;;12.61;100.00;100891.28;2078314;28;20049;-74
2023/04/19 03:21:26;;;;;;;8.82;4.03;;;;;;;12.56;100.00;100887.72;2083121;28;19932;-75
2023/04/19 03:22:49;;;;;;;14.70;4.25;;;;;;;12.54;100.00;100883.25;2070134;28;20054;-75
2023/04/19 03:24:13;;;;;;;14.10;4.53;;;;;;;12.55;100.00;100890.34;2068982;28;20111;-74
2023/04/19 03:25:39;;;;;;;16.40;4.32;;;;;;;12.56;100.00;100885.06;2067986;28;20054;-75
2023/04/19 03:27:13;;;;;;;12.90;4.30;;;;;;;12.57;100.00;100889.50;2070269;28;20144;-74
2023/04/19 03:28:36;;;;;;;12.73;4.00;;;;;;;12.60;100.00;100892.16;2082350;28;20067;-75
2023/04/19 03:30:12;;;;;;;19.33;4.60;;;;;;;12.60;100.00;100889.50;2073588;28;20461;-74
2023/04/19 03:31:34;;;;;;;18.40;4.25;;;;;;;12.62;100.00;100900.13;2068924;28;20144;-75
2023/04/19 03:32:57;;;;;;;13.48;4.20;;;;;;;12.60;100.00;100900.09;2070975;28;20079;-74
2023/04/19 03:34:18;;;;;;;14.32;4.50;;;;;;;12.58;100.00;100896.56;2077748;28;20049;-75
2023/04/19 03:35:44;;;;;;;16.77;4.47;;;;;;;12.58;100.00;100901.88;2069663;28;20144;-74
2023/04/19 03:37:07;;;;;;;13.10;4.25;;;;;;;12.55;100.00;100893.00;2073438;28;20568;-74
2023/04/19 03:38:29;;;;;;;13.50;4.10;;;;;;;12.54;100.00;100896.50;2069500;28;20038;-74
2023/04/19 03:39:53;;;;;;;11.38;3.78;;;;;;;12.53;100.00;100894.75;2066213;28;20100;-74
2023/04/19 03:41:23;;;;;;;13.65;4.00;;;;;;;12.52;100.00;100895.63;2075929;28;20049;-74
2023/04/19 03:42:55;;;;;;;12.63;3.45;;;;;;;12.51;100.00;100907.09;2077505;28;20065;-74
2023/04/19 03:44:24;;;;;;;9.20;3.60;;;;;;;12.52;100.00;100903.56;2070240;28;20050;-75
2023/04/19 03:45:46;;;;;;;11.18;3.92;;;;;;;12.52;100.00;100904.47;2065291;28;20075;-74
2023/04/19 03:47:08;;;;;;;12.68;4.30;;;;;;;12.54;100.00;100908.00;2070209;28;20192;-74
2023/04/19 03:48:36;;;;;;;9.32;3.83;;;;;;;12.55;100.00;100899.19;2068468;28;20078;-74
2023/04/19 03:49:59;;;;;;;14.00;4.35;;;;;;;12.58;100.00;100896.56;2068434;28;20061;-74
2023/04/19 03:51:22;;;;;;;11.93;3.83;;;;;;;12.60;100.00;100905.41;2075042;28;20144;-74
2023/04/19 03:52:44;;;;;;;10.57;3.85;;;;;;;12.61;100.00;100907.19;2079736;28;20052;-74
2023/04/19 03:54:07;;;;;;;10.88;4.13;;;;;;;12.62;100.00;100905.41;2061665;28;20133;-74
2023/04/19 03:55:31;;;;;;;13.05;3.72;;;;;;;12.65;100.00;100906.34;2060271;28;20081;-74
2023/04/19 03:56:53;;;;;;;15.18;3.78;;;;;;;12.68;100.00;100906.38;2074823;28;20076;-74
2023/04/19 03:58:15;;;;;;;12.23;4.00;;;;;;;12.70;100.00;100911.69;2069160;28;20050;-74
2023/04/19 03:59:50;;;;;;;13.45;4.43;;;;;;;12.70;100.00;100920.53;2069137;28;20046;-74
2023/04/19 04:01:17;;;;;;;6.88;3.25;;;;;;;12.68;100.00;100908.13;2066963;28;20060;-75
2023/04/19 04:02:40;;;;;;;9.68;3.22;;;;;;;12.64;100.00;100912.50;2067234;28;20046;-74
2023/04/19 04:04:03;;;;;;;11.23;3.65;;;;;;;12.65;100.00;100911.66;2058790;28;20046;-75
2023/04/19 04:05:26;;;;;;;7.95;3.03;;;;;;;12.68;100.00;100902.81;2066650;28;20104;-75
2023/04/19 04:06:49;;;;;;;15.15;4.25;;;;;;;12.69;100.00;100912.56;2069584;28;20054;-74
2023/04/19 04:08:12;;;;;;;11.75;4.25;;;;;;;12.73;100.00;100912.59;2074103;28;20034;-75
2023/04/19 04:09:36;;;;;;;8.43;3.03;;;;;;;12.78;100.00;100916.19;2068303;28;20054;-75
2023/04/19 04:10:58;;;;;;;9.82;2.78;;;;;;;12.85;100.00;100919.78;2068562;28;20050;-75
2023/04/19 04:12:21;;;;;;;10.75;2.95;;;;;;;12.86;100.00;100928.63;2065878;28;20045;-75
2023/04/19 04:13:45;;;;;;;8.25;2.83;;;;;;;12.76;100.00;100925.88;2067049;28;20391;-75
2023/04/19 04:15:13;;;;;;;8.55;2.08;;;;;;;12.63;100.00;100925.75;2068290;28;20070;-74
2023/04/19 04:16:41;;;;;;;7.50;2.00;;;;;;;12.58;100.00;100930.09;2069746;28;20481;-75
2023/04/19 04:18:04;;;;;;;6.43;1.70;;;;;;;12.57;100.00;100926.56;2073696;28;20137;-75
2023/04/19 04:19:25;;;;;;;7.80;2.20;;;;;;;12.65;100.00;100927.53;2070840;28;20057;-75
2023/04/19 04:20:48;;;;;;;7.60;2.17;;;;;;;12.78;100.00;100932.09;2065917;28;20120;-74
2023/04/19 04:22:09;;;;;;;8.00;1.83;;;;;;;12.97;100.00;100937.53;2071497;28;20099;-74
2023/04/19 04:23:36;;;;;;;4.60;1.90;;;;;;;13.12;100.00;100932.38;2069587;28;20545;-75
2023/04/19 04:25:01;;;;;;;10.43;3.10;;;;;;;13.31;100.00;100933.44;2067181;28;20053;-75
2023/04/19 04:26:32;;;;;;;50.65;31.55;;;;;;;13.48;100.00;100927.34;2069420;28;20475;-75
2023/04/19 04:28:05;;;;;;;35.80;19.63;;;;;;;13.64;100.00;100933.66;2073951;28;20431;-74
2023/04/19 04:29:29;;;;;;;20.67;9.05;;;;;;;13.73;100.00;100927.47;2077133;28;20090;-74
2023/04/19 04:30:52;;;;;;;10.20;4.35;;;;;;;13.77;100.00;100924.88;2068726;28;20145;-74
2023/04/19 04:32:17;;;;;;;9.50;4.22;;;;;;;13.83;100.00;100927.56;2067423;28;20058;-74
2023/04/19 04:33:40;;;;;;;11.30;3.42;;;;;;;13.94;100.00;100922.28;2066795;28;20041;-75
2023/04/19 04:35:06;;;;;;;13.20;4.85;;;;;;;14.04;100.00;100931.19;2067572;28;20050;-75
2023/04/19 04:36:36;;;;;;;11.50;4.55;;;;;;;14.09;100.00;100932.09;2075522;28;20082;-74
2023/04/19 04:37:58;;;;;;;15.35;6.30;;;;;;;14.11;100.00;100925.88;2079355;28;20068;-74
2023/04/19 04:39:21;;;;;;;46.15;31.10;;;;;;;14.13;100.00;100928.56;2067759;28;20057;-74
2023/04/19 04:40:42;;;;;;;25.40;15.82;;;;;;;14.11;100.00;100933.00;2064327;28;20133;-74
2023/04/19 04:42:07;;;;;;;21.73;11.40;;;;;;;14.08;100.00;100930.31;2066411;28;20146;-74
2023/04/19 04:43:31;;;;;;;14.90;6.63;;;;;;;14.05;100.00;100933.81;2070622;28;20058;-75
2023/04/19 04:44:56;;;;;;;25.00;9.75;;;;;;;14.02;100.00;100928.53;2069763;28;20065;-74
2023/04/19 04:46:19;;;;;;;17.38;7.75;;;;;;;14.00;100.00;100919.66;2067985;28;20697;-74
2023/04/19 04:47:42;;;;;;;11.95;5.40;;;;;;;14.02;100.00;100925.88;2074267;28;20081;-74
2023/04/19 04:49:06;;;;;;;14.18;6.03;;;;;;;14.13;100.00;100931.22;2069253;28;20363;-74
2023/04/19 04:50:31;;;;;;;22.13;12.63;;;;;;;14.25;100.00;100928.59;2068089;28;20041;-74
2023/04/19 04:51:54;;;;;;;13.75;6.28;;;;;;;14.34;100.00;100929.53;2062539;28;20068;-74
2023/04/19 04:53:17;;;;;;;13.73;8.25;;;;;;;14.48;100.00;100928.72;2068937;28;20426;-74
2023/04/19 04:54:40;;;;;;;20.58;9.48;;;;;;;14.55;100.00;100920.75;2067475;28;20481;-74
2023/04/19 04:56:13;;;;;;;17.55;8.90;;;;;;;14.67;100.00;100923.44;2070761;28;20494;-74
2023/04/19 04:57:37;;;;;;;13.23;6.88;;;;;;;14.80;100.00;100920.78;2067884;28;20544;-74
2023/04/19 04:59:01;;;;;;;12.82;6.35;;;;;;;14.93;100.00;100923.44;2068999;28;20054;-74
2023/04/19 05:00:29;;;;;;;11.27;5.28;;;;;;;15.11;100.00;100922.56;2077292;28;20499;-74
2023/04/19 05:01:58;;;;;;;12.05;6.07;;;;;;;15.31;100.00;100920.78;2079689;28;20473;-75
2023/04/19 05:03:21;;;;;;;13.98;6.03;;;;;;;15.51;100.00;100912.75;2068965;28;20126;-74
2023/04/19 05:04:50;;;;;;;8.57;3.25;;;;;;;15.68;100.00;100913.66;2069734;28;20517;-74
2023/04/19 05:06:11;;;;;;;11.18;4.80;;;;;;;15.88;100.00;100910.94;2065895;28;20421;-74
2023/04/19 05:07:34;;;;;;;17.40;6.38;;;;;;;16.07;100.00;100917.06;2069503;28;20046;-74
2023/04/19 05:08:57;;;;;;;10.00;4.15;;;;;;;16.25;100.00;100917.84;2067635;28;20046;-74
2023/04/19 05:10:29;;;;;;;8.80;3.30;;;;;;;16.44;100.00;100915.97;2066047;28;20652;-74
2023/04/19 05:11:51;;;;;;;7.60;3.15;;;;;;;16.60;100.00;100915.03;2068061;28;20057;-74
2023/04/19 05:13:15;;;;;;;5.97;1.90;;;;;;;16.80;100.00;100916.66;2070490;28;20535;-74
2023/04/19 05:14:37;;;;;;;7.95;2.00;;;;;;;16.94;100.00;100920.09;2070469;28;20176;-74
2023/04/19 05:15:59;;;;;;;5.35;1.65;;;;;;;17.07;100.00;100913.75;2066326;28;20045;-74
2023/04/19 05:17:22;;;;;;;9.05;1.85;;;;;;;17.21;100.00;100919.84;2070826;28;20053;-74
2023/04/19 05:18:44;;;;;;;5.15;1.70;;;;;;;17.35;100.00;100917.94;2070186;28;20089;-74
2023/04/19 05:20:07;;;;;;;7.95;1.40;;;;;;;17.46;100.00;100913.38;2068117;28;20169;-74
2023/04/19 05:21:31;;;;;;;6.05;1.40;;;;;;;17.60;100.00;100923.03;2062225;28;20462;-74
2023/04/19 05:22:57;;;;;;;5.13;1.30;;;;;;;17.73;100.00;100920.25;2074686;28;20057;-74
2023/04/19 05:24:19;;;;;;;7.05;1.50;;;;;;;17.87;100.00;100914.75;2069058;28;20442;-74
2023/04/19 05:25:41;;;;;;;;;;;;;;;17.94;100.00;100911.09;2068421;28;20038;-74
2023/04/19 05:27:04;;;;;;;6.53;1.65;;;;;;;18.08;100.00;100910.94;2067326;28;20282;-74
2023/04/19 05:28:28;;;;;;;6.38;1.70;;;;;;;18.25;100.00;100914.25;2067034;28;20061;-74
2023/04/19 05:30:00;;;;;;;6.50;1.80;;;;;;;18.44;100.00;100901.56;2069905;28;20045;-73
2023/04/19 05:31:22;;;;;;;9.85;1.30;;;;;;;18.66;100.00;100906.56;2067339;28;20092;-74
2023/04/19 05:33:01;;;;;;;9.98;1.90;;;;;;;18.94;100.00;100914.16;2073066;28;20545;-74
2023/04/19 05:34:22;;;;;;;6.05;1.70;;;;;;;19.19;100.00;100907.50;2071770;28;20045;-74
2023/04/19 05:35:45;;;;;;;6.38;2.15;;;;;;;19.39;100.00;100900.00;2066978;28;20053;-74
2023/04/19 05:37:07;;;;;;;7.28;2.42;;;;;;;19.53;100.00;100907.81;2073231;28;20055;-74
2023/04/19 05:38:30;;;;;;;12.25;3.55;;;;;;;19.69;100.00;100905.72;2070195;28;20048;-74
2023/04/19 05:39:54;;;;;;;11.55;4.60;;;;;;;19.86;100.00;100903.59;2070595;28;20042;-75
2023/04/19 05:41:17;;;;;;;9.57;4.10;;;;;;;20.08;100.00;100906.72;2076342;28;20037;-75
2023/04/19 05:42:40;;;;;;;10.93;4.75;;;;;;;20.27;100.00;100900.03;2070511;28;20106;-75
2023/04/19 05:44:04;;;;;;;9.95;4.35;;;;;;;20.45;100.00;100910.38;2067603;28;20081;-75
2023/04/19 05:45:27;;;;;;;12.13;5.43;;;;;;;20.59;100.00;100908.28;2070431;28;20136;-74
2023/04/19 05:46:49;;;;;;;10.30;5.43;;;;;;;20.74;100.00;100903.47;2064786;28;20136;-75
2023/04/19 05:48:25;;;;;;;10.35;4.55;;;;;;;20.82;100.00;100904.16;2063847;28;20047;-74
2023/04/19 05:49:57;;;;;;;8.98;3.47;;;;;;;20.77;100.00;100906.06;2070371;28;20104;-75
2023/04/19 05:51:27;;;;;;;13.23;3.70;;;;;;;20.64;100.00;100901.00;2072271;28;20073;-74
2023/04/19 05:53:10;;;;;;;;;;;;;;;20.56;100.00;100913.69;2079265;28;20160;-74
2023/04/19 05:54:34;;;;;;;8.95;2.60;;;;;;;20.64;100.00;100909.03;2078523;28;20305;-75
2023/04/19 05:55:57;;;;;;;8.27;2.58;;;;;;;20.81;100.00;100910.44;2067104;28;20510;-75
2023/04/19 05:57:24;;;;;;;4.82;1.88;;;;;;;20.98;100.00;100911.81;2066827;28;20041;-75
2023/04/19 05:58:47;;;;;;;8.43;2.13;;;;;;;21.19;100.00;100913.09;2070832;28;20048;-75
2023/04/19 06:00:12;;;;;;;9.65;3.30;;;;;;;21.37;100.00;100911.72;2060296;28;20436;-75
2023/04/19 06:01:51;;;;;;;8.63;2.30;;;;;;;21.15;100.00;100915.84;2072468;28;20152;-75
2023/04/19 06:03:18;;;;;;;6.53;2.15;;;;;;;20.83;100.00;100914.84;2075496;28;20065;-75
2023/04/19 06:04:41;;;;;;;5.75;1.67;;;;;;;20.62;100.00;100912.66;2070403;28;20179;-75
2023/04/19 06:06:04;;;;;;;6.18;1.65;;;;;;;20.36;100.00;100915.06;2076016;28;20450;-75
2023/04/19 06:07:27;;;;;;;8.73;2.33;;;;;;;20.05;100.00;100917.50;2076797;28;20050;-75
2023/04/19 06:08:49;;;;;;;7.25;1.70;;;;;;;19.78;100.00;100919.81;2065912;28;20050;-75
2023/04/19 06:10:11;;;;;;;6.82;1.85;;;;;;;19.53;100.00;100921.19;2076782;28;20069;-75
2023/04/19 06:11:34;;;;;;;9.10;1.90;;;;;;;19.31;100.00;100919.78;2079516;28;20045;-75
2023/04/19 06:12:56;;;;;;;5.28;1.60;;;;;;;19.15;100.00;100915.63;2078397;28;20049;-74
2023/04/19 06:14:17;;;;;;;6.85;1.98;;;;;;;19.11;100.00;100920.13;2068562;28;20513;-75
2023/04/19 06:15:42;;;;;;;10.88;1.83;;;;;;;19.10;100.00;100919.22;2069377;28;20038;-75
2023/04/19 06:17:04;;;;;;;9.60;2.15;;;;;;;19.33;100.00;100910.81;2075290;28;20054;-75
2023/04/19 06:18:27;;;;;;;7.90;1.63;;;;;;;19.60;100.00;100914.81;2067535;28;20564;-75
2023/04/19 06:19:49;;;;;;;5.88;1.80;;;;;;;19.85;100.00;100913.41;2073315;28;20063;-75
2023/04/19 06:21:11;;;;;;;8.82;1.67;;;;;;;19.97;100.00;100908.72;2076805;28;20048;-75
2023/04/19 06:22:34;;;;;;;6.85;1.40;;;;;;;20.06;100.00;100908.53;2079673;28;20053;-75